Time;durP1;ratioP1;P1;durP2;ratioP2;P2;SDS_P1;SDS_P2;PMS_P1;PMS_P2;Temp;Humidity;BMP_temperature;BMP_pressure;BME280_temperature;BME280_humidity;BME280_pressure;Samples;Min_cycle;Max_cycle;Signal;HPM_P1;HPM_P2
2021/12/27 00:02:24;;;;;;;21.85;10.95;;;;;;;-3.28;100.00;101120.44;4771021;30;20100;-78
2021/12/27 00:04:49;;;;;;;20.77;10.48;;;;;;;-3.23;100.00;101123.59;4755559;30;20092;-79
2021/12/27 00:07:15;;;;;;;22.88;10.77;;;;;;;-3.16;100.00;101126.69;4771397;30;20040;-79
2021/12/27 00:09:41;;;;;;;21.13;10.75;;;;;;;-3.22;100.00;101108.66;4772539;30;20100;-79
2021/12/27 00:12:07;;;;;;;21.42;11.05;;;;;;;-3.23;100.00;101085.94;4772125;30;20501;-79
2021/12/27 00:14:33;;;;;;;25.27;11.77;;;;;;;-2.91;100.00;101124.09;4760162;30;20039;-78
2021/12/27 00:16:58;;;;;;;24.75;11.63;;;;;;;-2.83;100.00;101123.53;4774492;30;20043;-78
2021/12/27 00:19:24;;;;;;;25.02;11.00;;;;;;;-2.96;100.00;101089.31;4757758;30;20035;-79
2021/12/27 00:21:49;;;;;;;21.63;10.90;;;;;;;-3.00;100.00;101069.41;4772269;30;20177;-79
2021/12/27 00:24:15;;;;;;;22.35;10.60;;;;;;;-2.69;100.00;101104.16;4755666;30;20471;-79
2021/12/27 00:26:40;;;;;;;22.42;10.60;;;;;;;-2.53;100.00;101114.47;4771425;30;20023;-78
2021/12/27 00:29:06;;;;;;;25.10;10.85;;;;;;;-2.54;100.00;101102.25;4756202;30;20071;-78
2021/12/27 00:31:31;;;;;;;20.38;10.20;;;;;;;-2.39;100.00;101123.09;4755666;30;20036;-79
2021/12/27 00:33:56;;;;;;;19.45;9.60;;;;;;;-2.30;100.00;101118.13;4770792;30;20040;-79
2021/12/27 00:36:22;;;;;;;20.90;10.32;;;;;;;-2.24;100.00;101115.06;4755994;30;20059;-78
2021/12/27 00:38:47;;;;;;;24.17;10.68;;;;;;;-2.29;100.00;101096.09;4753547;30;20114;-78
2021/12/27 00:41:12;;;;;;;19.80;9.82;;;;;;;-2.24;100.00;101099.25;4771406;30;20062;-78
2021/12/27 00:43:38;;;;;;;20.35;9.73;;;;;;;-2.39;100.00;101059.00;4770108;30;20043;-78
2021/12/27 00:46:03;;;;;;;20.08;10.05;;;;;;;-1.96;100.00;101119.19;4754884;30;20046;-79
2021/12/27 00:48:29;;;;;;;21.75;9.93;;;;;;;-1.99;100.00;101109.69;4771303;30;20036;-78
2021/12/27 00:50:54;;;;;;;17.23;8.55;;;;;;;-1.93;100.00;101106.63;4778605;30;20379;-78
2021/12/27 00:53:20;;;;;;;16.58;8.57;;;;;;;-1.74;100.00;101118.50;4771360;30;20058;-79
2021/12/27 00:55:45;;;;;;;17.77;8.63;;;;;;;-1.71;100.00;101121.75;4759756;30;20035;-78
2021/12/27 00:58:11;;;;;;;19.48;9.13;;;;;;;-1.85;100.00;101099.94;4774713;30;20359;-78
2021/12/27 01:00:36;;;;;;;20.80;8.95;;;;;;;-1.75;100.00;101116.81;4743915;30;20036;-78
2021/12/27 01:03:02;;;;;;;20.92;8.75;;;;;;;-1.69;100.00;101133.03;4777128;30;20035;-79
2021/12/27 01:05:28;;;;;;;20.65;9.98;;;;;;;-1.74;100.00;101108.78;4789621;30;20027;-79
2021/12/27 01:07:54;;;;;;;16.92;7.95;;;;;;;-1.68;100.00;101110.13;4763335;30;20111;-79
2021/12/27 01:10:49;;;;;;;14.52;7.45;;;;;;;-1.55;100.00;101129.38;4774145;30;20058;-79
2021/12/27 01:16:13;;;;;;;10.63;4.65;;;;;;;-1.41;100.00;101131.00;4733921;30;20049;-79
2021/12/27 01:18:47;;;;;;;10.45;4.32;;;;;;;-1.44;100.00;101116.22;4765117;30;20056;-79
2021/12/27 01:21:16;;;;;;;12.40;4.35;;;;;;;-1.45;100.00;101093.44;4770371;30;20066;-78
2021/12/27 01:23:41;;;;;;;10.50;4.32;;;;;;;-1.16;100.00;101135.28;4770514;30;20042;-79
2021/12/27 01:26:07;;;;;;;10.95;4.53;;;;;;;-1.10;100.00;101131.34;4769638;30;20031;-79
2021/12/27 01:28:33;;;;;;;11.75;4.50;;;;;;;-1.04;100.00;101134.34;4769457;30;20364;-78
2021/12/27 01:30:59;;;;;;;9.07;4.13;;;;;;;-1.49;100.00;101054.19;4770460;30;20356;-78
2021/12/27 01:33:25;;;;;;;10.35;4.00;;;;;;;-0.95;100.00;101127.56;4739414;30;20043;-79
2021/12/27 01:35:52;;;;;;;8.23;3.92;;;;;;;-0.92;100.00;101126.47;4770772;30;20470;-79
2021/12/27 01:38:18;;;;;;;9.05;3.30;;;;;;;-0.92;100.00;101118.56;4784476;30;20085;-79
2021/12/27 01:40:46;;;;;;;10.40;3.83;;;;;;;-0.83;100.00;101128.41;4780950;30;20019;-77
2021/12/27 01:43:15;;;;;;;11.05;3.65;;;;;;;-0.81;100.00;101135.25;4792710;30;20027;-79
2021/12/27 01:45:48;;;;;;;8.00;3.67;;;;;;;-0.76;100.00;101129.63;4782393;30;20036;-79
2021/12/27 01:48:16;;;;;;;6.35;3.38;;;;;;;-0.90;100.00;101114.81;4759252;30;20375;-79
2021/12/27 01:50:44;;;;;;;6.40;3.50;;;;;;;-0.86;100.00;101112.78;4775142;30;20330;-79
2021/12/27 01:53:11;;;;;;;8.60;3.25;;;;;;;-0.73;100.00;101135.53;4792341;30;20042;-79
2021/12/27 01:55:37;;;;;;;11.27;3.47;;;;;;;-0.72;100.00;101139.00;4777459;30;20506;-79
2021/12/27 01:58:04;;;;;;;20.13;3.78;;;;;;;-0.81;100.00;101124.69;4776254;30;20096;-79
2021/12/27 02:00:30;;;;;;;6.43;3.30;;;;;;;-0.71;100.00;101135.38;4790427;30;20036;-79
2021/12/27 02:02:56;;;;;;;7.97;3.42;;;;;;;-0.71;100.00;101130.09;4793465;30;20031;-79
2021/12/27 02:05:21;;;;;;;6.53;3.33;;;;;;;-0.84;100.00;101119.63;4778547;30;20099;-79
2021/12/27 02:07:47;;;;;;;10.77;3.17;;;;;;;-0.71;100.00;101127.47;4789430;29;20038;-79
2021/12/27 02:10:13;;;;;;;7.97;3.10;;;;;;;-0.70;100.00;101118.56;4782288;30;20084;-78
2021/12/27 02:12:39;;;;;;;7.78;3.60;;;;;;;-0.64;100.00;101126.03;4788181;30;20035;-79
2021/12/27 02:15:07;;;;;;;11.77;3.38;;;;;;;-0.75;100.00;101113.66;4778231;30;20108;-79
2021/12/27 02:17:33;;;;;;;6.70;3.00;;;;;;;-0.68;100.00;101116.66;4779179;30;20039;-78
2021/12/27 02:19:59;;;;;;;9.20;3.35;;;;;;;-0.63;100.00;101127.72;4789493;30;20035;-79
2021/12/27 02:22:24;;;;;;;6.30;3.25;;;;;;;-0.62;100.00;101124.13;4798317;30;20039;-79
2021/12/27 02:24:49;;;;;;;8.10;3.30;;;;;;;-0.60;100.00;101122.19;4786928;30;20055;-79
2021/12/27 02:27:16;;;;;;;6.30;3.05;;;;;;;-0.63;100.00;101111.88;4778492;30;20437;-79
2021/12/27 02:29:42;;;;;;;5.97;3.33;;;;;;;-0.62;100.00;101113.53;4760320;30;20119;-79
2021/12/27 02:32:08;;;;;;;7.32;3.28;;;;;;;-0.63;100.00;101116.28;4743092;30;20031;-79
2021/12/27 02:34:34;;;;;;;6.53;3.00;;;;;;;-0.63;100.00;101119.81;4758788;30;20043;-79
2021/12/27 02:37:01;;;;;;;7.13;3.20;;;;;;;-0.62;100.00;101124.13;4772527;30;20438;-79
2021/12/27 02:39:29;;;;;;;6.47;2.65;;;;;;;-0.63;100.00;101126.88;4776033;30;20370;-79
2021/12/27 02:41:54;;;;;;;7.72;3.20;;;;;;;-0.67;100.00;101114.84;4769418;30;20043;-78
2021/12/27 02:44:20;;;;;;;4.53;2.72;;;;;;;-0.64;100.00;101117.25;4785341;30;20390;-79
2021/12/27 02:46:45;;;;;;;5.20;2.53;;;;;;;-0.64;100.00;101125.19;4784665;30;20035;-78
2021/12/27 02:49:10;;;;;;;6.32;2.72;;;;;;;-0.82;100.00;101091.31;4773378;30;20051;-79
2021/12/27 02:51:36;;;;;;;5.47;2.67;;;;;;;-0.64;100.00;101126.03;4771468;30;20129;-79
2021/12/27 02:54:01;;;;;;;6.68;2.72;;;;;;;-0.63;100.00;101129.50;4772790;30;20112;-79
2021/12/27 02:56:29;;;;;;;5.38;2.47;;;;;;;-0.66;100.00;101127.09;4772973;30;20040;-79
2021/12/27 02:58:56;;;;;;;4.05;2.20;;;;;;;-0.68;100.00;101124.59;4771860;30;20101;-79
2021/12/27 03:01:23;;;;;;;8.93;2.50;;;;;;;-0.82;100.00;101095.75;4772559;30;20055;-79
2021/12/27 03:03:49;;;;;;;3.42;1.90;;;;;;;-0.72;100.00;101126.63;4757390;30;20449;-79
2021/12/27 03:06:15;;;;;;;5.07;1.85;;;;;;;-0.86;100.00;101100.44;4777909;30;20103;-79
2021/12/27 03:08:43;;;;;;;5.25;2.45;;;;;;;-0.78;100.00;101119.16;4794752;30;20028;-79
2021/12/27 03:11:10;;;;;;;5.50;2.45;;;;;;;-0.79;100.00;101122.78;4769855;30;20348;-79
2021/12/27 03:13:38;;;;;;;4.28;2.15;;;;;;;-0.79;100.00;101122.78;4771248;30;20035;-78
2021/12/27 03:16:15;;;;;;;4.55;2.25;;;;;;;-0.77;100.00;101122.66;4774141;30;20039;-78
2021/12/27 03:18:43;;;;;;;7.80;2.60;;;;;;;-0.91;100.00;101101.75;4773799;30;21043;-78
2021/12/27 03:21:09;;;;;;;5.15;2.38;;;;;;;-0.78;100.00;101124.44;4774752;30;20035;-79
2021/12/27 03:23:37;;;;;;;5.53;2.60;;;;;;;-0.76;100.00;101129.63;4789062;30;20031;-78
2021/12/27 03:26:03;;;;;;;5.80;2.50;;;;;;;-0.77;100.00;101126.13;4767396;30;20384;-78
2021/12/27 03:28:29;;;;;;;6.80;2.75;;;;;;;-0.77;100.00;101130.56;4770872;30;20042;-78
2021/12/27 03:30:57;;;;;;;4.97;2.75;;;;;;;-0.75;100.00;101120.75;4790030;30;20054;-79
2021/12/27 03:33:23;;;;;;;5.75;2.95;;;;;;;-0.89;100.00;101099.81;4771163;30;20513;-79
2021/12/27 03:36:05;;;;;;;6.15;2.95;;;;;;;-0.85;100.00;101106.56;4768576;30;20037;-79
2021/12/27 03:38:43;;;;;;;4.55;2.80;;;;;;;-0.77;100.00;101109.44;4775604;30;20042;-79
2021/12/27 03:41:13;;;;;;;5.75;3.10;;;;;;;-0.77;100.00;101110.28;4759938;30;20089;-78
2021/12/27 03:43:38;;;;;;;6.50;3.13;;;;;;;-0.87;100.00;101104.00;4756808;30;20039;-79
2021/12/27 03:46:04;;;;;;;4.43;2.90;;;;;;;-0.93;100.00;101095.72;4772121;30;20039;-78
2021/12/27 03:48:30;;;;;;;4.70;2.72;;;;;;;-0.78;100.00;101110.41;4763713;30;20046;-79
2021/12/27 03:50:55;;;;;;;4.97;2.78;;;;;;;-1.09;100.00;101067.88;4773161;30;20043;-78
2021/12/27 03:53:21;;;;;;;5.20;2.83;;;;;;;-0.81;100.00;101118.56;4771144;30;20055;-78
2021/12/27 03:55:46;;;;;;;10.60;3.05;;;;;;;-0.79;100.00;101106.09;4772797;30;20032;-79
2021/12/27 03:58:24;;;;;;;4.00;2.40;;;;;;;-0.76;100.00;101105.84;4768006;30;20039;-78
2021/12/27 04:03:19;;;;;;;5.38;2.40;;;;;;;-0.93;100.00;101077.22;4769783;30;20067;-78
2021/12/27 04:05:46;;;;;;;4.63;2.58;;;;;;;-0.77;100.00;101104.16;4756907;30;20455;-78
2021/12/27 04:08:12;;;;;;;4.30;2.35;;;;;;;-0.78;100.00;101102.47;4771455;30;20035;-78
2021/12/27 04:10:40;;;;;;;6.20;2.50;;;;;;;-0.76;100.00;101100.56;4773959;30;20112;-78
2021/12/27 04:13:08;;;;;;;4.25;2.60;;;;;;;-0.74;100.00;101093.34;4772090;30;20118;-78
2021/12/27 04:15:34;;;;;;;3.70;2.30;;;;;;;-0.76;100.00;101097.94;4761174;30;20032;-79
2021/12/27 04:18:00;;;;;;;4.15;2.40;;;;;;;-0.82;100.00;101079.91;4739488;30;20378;-79
2021/12/27 04:20:26;;;;;;;3.33;2.10;;;;;;;-0.90;100.00;101067.28;4770154;30;20035;-78
2021/12/27 04:22:52;;;;;;;5.20;2.20;;;;;;;-0.84;100.00;101079.16;4741001;30;20074;-78
2021/12/27 04:25:18;;;;;;;5.15;2.50;;;;;;;-0.69;100.00;101098.28;4770810;30;20063;-78
2021/12/27 04:27:44;;;;;;;4.93;2.58;;;;;;;-0.69;100.00;101107.06;4785450;30;20104;-78
2021/12/27 04:30:10;;;;;;;5.85;2.78;;;;;;;-0.67;100.00;101102.47;4758365;30;20039;-78
2021/12/27 04:32:36;;;;;;;3.08;2.22;;;;;;;-0.63;100.00;101106.59;4781289;29;20120;-78
2021/12/27 04:35:02;;;;;;;8.65;2.70;;;;;;;-0.67;100.00;101105.13;4755526;30;20471;-78
2021/12/27 04:37:31;;;;;;;5.38;2.72;;;;;;;-0.82;100.00;101074.63;4770952;30;20054;-78
2021/12/27 04:39:57;;;;;;;4.72;2.58;;;;;;;-0.83;100.00;101075.56;4741850;30;20417;-78
2021/12/27 04:42:24;;;;;;;3.67;2.22;;;;;;;-0.67;100.00;101101.63;4755357;30;20324;-78
2021/12/27 04:44:49;;;;;;;4.47;2.53;;;;;;;-0.69;100.00;101091.19;4771482;30;20031;-79
2021/12/27 04:47:16;;;;;;;5.68;2.50;;;;;;;-0.72;100.00;101092.28;4753256;30;20053;-78
2021/12/27 04:49:43;;;;;;;3.45;2.28;;;;;;;-0.77;100.00;101077.72;4768933;30;20406;-78
2021/12/27 04:52:10;;;;;;;5.85;2.45;;;;;;;-0.72;100.00;101094.09;4755250;30;20036;-78
2021/12/27 04:54:36;;;;;;;4.85;2.53;;;;;;;-0.72;100.00;101091.44;4770170;30;20111;-78
2021/12/27 04:57:01;;;;;;;4.53;2.75;;;;;;;-0.75;100.00;101089.88;4771023;30;20123;-78
2021/12/27 04:59:26;;;;;;;6.53;2.70;;;;;;;-0.72;100.00;101086.16;4768546;30;20469;-78
2021/12/27 05:01:52;;;;;;;6.57;2.92;;;;;;;-0.78;100.00;101081.34;4752756;30;20774;-79
2021/12/27 05:04:17;;;;;;;4.18;2.60;;;;;;;-0.95;100.00;101043.03;4765167;30;20040;-78
2021/12/27 05:06:43;;;;;;;4.95;2.50;;;;;;;-0.74;100.00;101080.97;4737433;30;20424;-79
2021/12/27 05:09:08;;;;;;;8.73;2.60;;;;;;;-0.83;100.00;101063.22;4749789;30;20032;-78
2021/12/27 05:11:33;;;;;;;5.95;2.92;;;;;;;-0.76;100.00;101076.78;4740839;30;20043;-79
2021/12/27 05:13:59;;;;;;;5.45;2.78;;;;;;;-0.76;100.00;101079.44;4752563;30;20059;-78
2021/12/27 05:16:24;;;;;;;5.32;2.80;;;;;;;-0.80;100.00;101072.69;4767273;30;20463;-77
2021/12/27 05:18:49;;;;;;;4.90;2.75;;;;;;;-0.76;100.00;101084.72;4760655;30;20066;-77
2021/12/27 05:21:15;;;;;;;6.18;3.17;;;;;;;-0.87;100.00;101061.75;4729612;30;20453;-78
2021/12/27 05:23:40;;;;;;;4.68;2.80;;;;;;;-0.79;100.00;101079.66;4768637;30;20129;-78
2021/12/27 05:26:06;;;;;;;3.83;2.42;;;;;;;-0.82;100.00;101080.75;4737514;30;20031;-78
2021/12/27 05:28:31;;;;;;;7.53;2.83;;;;;;;-0.85;100.00;101070.41;4764937;30;20352;-78
2021/12/27 05:30:56;;;;;;;5.60;2.67;;;;;;;-0.92;100.00;101061.28;4764440;30;20048;-77
2021/12/27 05:33:22;;;;;;;5.93;3.00;;;;;;;-0.86;100.00;101062.59;4748256;30;20039;-78
2021/12/27 05:35:47;;;;;;;5.72;3.05;;;;;;;-1.15;100.00;101022.59;4773116;30;20063;-79
2021/12/27 05:38:14;;;;;;;6.35;3.25;;;;;;;-0.81;100.00;101068.38;4768497;30;20047;-78
2021/12/27 05:40:39;;;;;;;5.30;2.83;;;;;;;-1.06;100.00;101041.22;4752934;30;20032;-77
2021/12/27 05:43:09;;;;;;;9.00;3.30;;;;;;;-0.92;100.00;101066.56;4771023;30;20520;-78
2021/12/27 05:45:36;;;;;;;6.38;3.13;;;;;;;-0.91;100.00;101059.47;4759984;30;20036;-79
2021/12/27 05:48:03;;;;;;;7.78;3.83;;;;;;;-0.92;100.00;101050.72;4761579;30;20085;-77
2021/12/27 05:50:28;;;;;;;5.85;3.47;;;;;;;-0.83;100.00;101072.91;4775027;30;20051;-77
2021/12/27 05:52:54;;;;;;;6.15;3.50;;;;;;;-0.89;100.00;101058.41;4772575;30;20047;-78
2021/12/27 05:55:19;;;;;;;7.63;3.53;;;;;;;-1.01;100.00;101044.34;4772284;30;20075;-77
2021/12/27 05:57:45;;;;;;;6.78;3.85;;;;;;;-0.90;100.00;101075.19;4758739;30;20067;-78
2021/12/27 06:00:12;;;;;;;7.20;3.85;;;;;;;-0.90;100.00;101077.00;4765950;30;20023;-77
2021/12/27 06:02:38;;;;;;;8.65;3.97;;;;;;;-0.97;100.00;101061.63;4776067;30;20032;-78
2021/12/27 06:05:04;;;;;;;7.85;3.97;;;;;;;-0.93;100.00;101070.13;4776051;30;20035;-77
2021/12/27 06:07:30;;;;;;;4.60;3.63;;;;;;;-0.95;100.00;101072.91;4772577;30;20027;-77
2021/12/27 06:09:56;;;;;;;8.93;3.97;;;;;;;-0.95;100.00;101064.16;4758340;30;20128;-78
2021/12/27 06:12:22;;;;;;;9.45;4.30;;;;;;;-0.97;100.00;101066.91;4757564;30;20089;-78
2021/12/27 06:14:47;;;;;;;6.75;4.10;;;;;;;-1.10;100.00;101045.03;4774962;30;20492;-78
2021/12/27 06:17:13;;;;;;;7.80;4.47;;;;;;;-1.01;100.00;101070.75;4745607;30;20044;-78
2021/12/27 06:19:38;;;;;;;9.02;3.83;;;;;;;-1.14;100.00;101046.22;4780677;30;20118;-77
2021/12/27 06:22:04;;;;;;;8.88;3.83;;;;;;;-0.93;100.00;101071.94;4774618;30;20043;-78
2021/12/27 06:24:30;;;;;;;7.05;3.60;;;;;;;-0.94;100.00;101076.41;4775184;30;20115;-77
2021/12/27 06:26:55;;;;;;;9.00;4.05;;;;;;;-0.99;100.00;101075.91;4748017;30;20219;-79
2021/12/27 06:29:21;;;;;;;7.85;3.90;;;;;;;-1.15;100.00;101055.13;4745082;30;20340;-78
2021/12/27 06:31:46;;;;;;;10.52;3.58;;;;;;;-1.08;100.00;101060.78;4758895;30;20652;-78
2021/12/27 06:34:13;;;;;;;7.15;3.72;;;;;;;-0.96;100.00;101075.66;4754377;30;20058;-78
2021/12/27 06:36:39;;;;;;;7.57;3.33;;;;;;;-0.96;100.00;101079.16;4768605;30;20128;-78
2021/12/27 06:39:05;;;;;;;9.02;3.78;;;;;;;-1.00;100.00;101074.22;4761436;30;20121;-77
2021/12/27 06:41:30;;;;;;;13.48;6.13;;;;;;;-1.19;100.00;101036.03;4772483;30;20713;-77
2021/12/27 06:43:56;;;;;;;22.00;9.00;;;;;;;-0.97;100.00;101085.38;4741492;30;20036;-77
2021/12/27 06:46:21;;;;;;;14.85;5.60;;;;;;;-1.05;100.00;101079.88;4774078;30;20046;-77
2021/12/27 06:48:47;;;;;;;6.95;3.40;;;;;;;-1.04;100.00;101078.91;4777588;30;20059;-77
2021/12/27 06:51:12;;;;;;;11.00;4.85;;;;;;;-0.94;100.00;101073.75;4774778;30;20134;-77
2021/12/27 06:53:37;;;;;;;15.75;7.30;;;;;;;-0.99;100.00;101075.91;4755984;30;20047;-77
2021/12/27 06:56:05;;;;;;;15.65;7.72;;;;;;;-1.04;100.00;101072.78;4742287;30;20043;-77
2021/12/27 06:58:30;;;;;;;17.25;8.23;;;;;;;-1.01;100.00;101081.31;4770987;30;20132;-77
2021/12/27 07:00:57;;;;;;;14.40;7.50;;;;;;;-0.96;100.00;101079.16;4754732;30;20058;-77
2021/12/27 07:03:23;;;;;;;18.35;8.77;;;;;;;-1.01;100.00;101086.59;4759458;30;20103;-77
2021/12/27 07:05:51;;;;;;;13.18;8.43;;;;;;;-1.01;100.00;101078.66;4774584;30;20047;-77
2021/12/27 07:08:18;;;;;;;14.88;8.27;;;;;;;-1.03;100.00;101083.22;4774332;30;20067;-77
2021/12/27 07:10:45;;;;;;;10.95;5.70;;;;;;;-1.23;100.00;101055.69;4774777;30;20463;-77
2021/12/27 07:13:10;;;;;;;15.05;7.70;;;;;;;-1.05;100.00;101090.44;4750840;30;20067;-77
2021/12/27 07:15:41;;;;;;;20.77;11.18;;;;;;;-1.08;100.00;101077.47;4753491;30;20118;-78
2021/12/27 07:18:20;;;;;;;33.63;21.65;;;;;;;-1.16;100.00;101081.63;4769336;30;20035;-77
2021/12/27 07:20:46;;;;;;;18.58;11.60;;;;;;;-1.17;100.00;101078.16;4769604;30;20050;-78
2021/12/27 07:23:12;;;;;;;19.27;12.80;;;;;;;-1.47;100.00;101053.13;4754574;30;20041;-77
2021/12/27 07:25:38;;;;;;;17.02;9.63;;;;;;;-1.33;100.00;101078.47;4773554;30;20031;-78
2021/12/27 07:28:04;;;;;;;18.52;9.85;;;;;;;-1.47;100.00;101057.56;4771761;30;20028;-77
2021/12/27 07:30:30;;;;;;;11.07;6.32;;;;;;;-1.40;100.00;101063.22;4754165;30;20371;-77
2021/12/27 07:32:57;;;;;;;11.10;6.97;;;;;;;-1.38;100.00;101072.72;4756977;30;20059;-77
2021/12/27 07:35:23;;;;;;;15.32;10.68;;;;;;;-1.52;100.00;101070.28;4774991;30;20023;-77
2021/12/27 07:37:48;;;;;;;11.60;5.47;;;;;;;-1.49;100.00;101076.16;4756412;30;21118;-78
2021/12/27 07:40:14;;;;;;;11.35;5.53;;;;;;;-1.55;100.00;101062.56;4771660;30;20046;-77
2021/12/27 07:42:40;;;;;;;14.15;9.75;;;;;;;-1.72;100.00;101034.81;4779537;30;20456;-77
2021/12/27 07:45:06;;;;;;;15.82;9.10;;;;;;;-1.70;100.00;101054.00;4754432;30;20047;-77
2021/12/27 07:47:31;;;;;;;133.68;54.97;;;;;;;-1.55;100.00;101076.59;4774192;30;20024;-77
2021/12/27 07:49:58;;;;;;;22.85;12.27;;;;;;;-1.57;100.00;101086.44;4773540;30;20151;-77
2021/12/27 07:52:23;;;;;;;7.95;5.18;;;;;;;-1.70;100.00;101072.47;4770768;30;20054;-77
2021/12/27 07:54:49;;;;;;;8.65;4.63;;;;;;;-1.73;100.00;101089.34;4772522;30;20062;-77
2021/12/27 07:57:14;;;;;;;9.40;4.63;;;;;;;-1.80;100.00;101063.53;4770517;30;20098;-77
2021/12/27 07:59:41;;;;;;;10.25;5.70;;;;;;;-1.82;100.00;101073.34;4773216;30;20028;-77
2021/12/27 08:02:08;;;;;;;8.50;5.65;;;;;;;-2.02;100.00;101040.53;4755698;30;20101;-77
2021/12/27 08:04:33;;;;;;;9.23;5.45;;;;;;;-1.87;100.00;101076.34;4768374;30;20048;-77
2021/12/27 08:06:58;;;;;;;10.90;5.97;;;;;;;-1.90;100.00;101080.03;4756763;30;20047;-77
2021/12/27 08:09:27;;;;;;;11.68;6.38;;;;;;;-1.99;100.00;101070.16;4755534;30;20043;-77
2021/12/27 08:11:52;;;;;;;7.90;4.75;;;;;;;-2.13;100.00;101068.53;4768670;30;20078;-77
2021/12/27 08:14:18;;;;;;;14.07;9.73;;;;;;;-2.34;100.00;101024.44;4771211;30;20257;-76
2021/12/27 08:16:43;;;;;;;17.73;13.40;;;;;;;-1.97;100.00;101075.31;4754955;30;20428;-78
2021/12/27 08:19:09;;;;;;;10.98;8.10;;;;;;;-2.12;100.00;101050.91;4771566;30;20043;-77
2021/12/27 08:21:34;;;;;;;12.55;9.23;;;;;;;-2.31;100.00;101046.13;4725989;30;20032;-77
2021/12/27 08:24:00;;;;;;;14.35;8.48;;;;;;;-2.37;100.00;101042.13;4740555;30;20061;-78
2021/12/27 08:26:25;;;;;;;13.20;9.32;;;;;;;-2.47;100.00;101029.75;4769121;30;20047;-78
2021/12/27 08:28:53;;;;;;;12.55;7.50;;;;;;;-2.32;100.00;101070.78;4755923;30;20035;-77
2021/12/27 08:31:19;;;;;;;12.32;8.00;;;;;;;-2.34;100.00;101074.50;4770825;30;20031;-77
2021/12/27 08:33:45;;;;;;;11.00;7.18;;;;;;;-2.38;100.00;101066.81;4753009;30;20051;-77
2021/12/27 08:36:10;;;;;;;10.80;5.47;;;;;;;-2.33;100.00;101079.66;4756957;30;20043;-77
2021/12/27 08:38:36;;;;;;;9.43;6.63;;;;;;;-2.33;100.00;101081.44;4765706;30;20044;-77
2021/12/27 08:41:02;;;;;;;8.93;4.55;;;;;;;-2.34;100.00;101083.25;4768295;30;20034;-77
2021/12/27 08:43:27;;;;;;;15.45;9.68;;;;;;;-2.47;100.00;101061.34;4770085;30;20471;-77
2021/12/27 08:45:54;;;;;;;9.88;5.47;;;;;;;-2.45;100.00;101072.59;4751819;30;20028;-78
2021/12/27 08:48:20;;;;;;;9.63;5.97;;;;;;;-2.40;100.00;101087.16;4754618;30;20040;-77
2021/12/27 08:50:46;;;;;;;13.45;7.57;;;;;;;-2.56;100.00;101068.09;4768647;30;20524;-77
2021/12/27 08:53:11;;;;;;;10.45;7.20;;;;;;;-2.62;100.00;101061.50;4770955;30;20059;-77
2021/12/27 08:55:37;;;;;;;18.20;11.80;;;;;;;-2.54;100.00;101075.91;4754872;30;20108;-78
2021/12/27 08:58:04;;;;;;;12.68;6.22;;;;;;;-2.49;100.00;101077.25;4740036;30;20044;-77
2021/12/27 09:00:30;;;;;;;9.13;5.97;;;;;;;-2.53;100.00;101081.06;4769684;30;20056;-78
2021/12/27 09:02:55;;;;;;;6.97;4.15;;;;;;;-2.72;100.00;101042.00;4773242;30;20047;-78
2021/12/27 09:05:21;;;;;;;11.18;4.82;;;;;;;-2.53;100.00;101077.59;4776840;30;20035;-78
2021/12/27 09:07:47;;;;;;;11.60;4.95;;;;;;;-2.59;100.00;101073.59;4755028;30;20136;-78
2021/12/27 09:10:13;;;;;;;6.57;3.83;;;;;;;-2.58;100.00;101070.03;4765595;30;20050;-78
2021/12/27 09:12:40;;;;;;;11.55;4.47;;;;;;;-2.74;100.00;101048.34;4769407;30;20043;-78
2021/12/27 09:15:06;;;;;;;8.70;4.57;;;;;;;-2.68;100.00;101066.31;4769238;30;20043;-78
2021/12/27 09:17:32;;;;;;;7.30;4.32;;;;;;;-2.67;100.00;101070.66;4770559;30;20111;-80
2021/12/27 09:19:58;;;;;;;18.55;12.80;;;;;;;-2.66;100.00;101062.63;4771303;30;20032;-79
2021/12/27 09:22:23;;;;;;;16.90;11.80;;;;;;;-2.74;100.00;101043.06;4771830;30;20040;-79
2021/12/27 09:24:50;;;;;;;8.13;4.57;;;;;;;-2.62;100.00;101064.13;4756533;30;20040;-79
2021/12/27 09:27:16;;;;;;;9.88;5.10;;;;;;;-2.61;100.00;101059.69;4754824;30;20039;-79
2021/12/27 09:29:43;;;;;;;9.25;4.80;;;;;;;-2.71;100.00;101042.84;4773483;30;20023;-79
2021/12/27 09:32:09;;;;;;;7.75;4.47;;;;;;;-2.61;100.00;101062.34;4755913;30;20040;-79
2021/12/27 09:34:35;;;;;;;9.75;5.18;;;;;;;-2.57;100.00;101063.78;4757117;30;20039;-80
2021/12/27 09:37:00;;;;;;;11.00;5.70;;;;;;;-2.49;100.00;101055.34;4773752;30;20038;-80
2021/12/27 09:39:26;;;;;;;9.30;5.20;;;;;;;-2.96;100.00;100977.91;4774030;30;20127;-80
2021/12/27 09:41:51;;;;;;;9.07;5.95;;;;;;;-2.46;100.00;101063.03;4772507;30;20056;-80
2021/12/27 09:44:17;;;;;;;12.82;5.07;;;;;;;-2.48;100.00;101062.31;4775183;30;20387;-79
2021/12/27 09:46:42;;;;;;;9.68;7.03;;;;;;;-2.40;100.00;101054.69;4750461;30;20051;-79
2021/12/27 09:49:12;;;;;;;13.25;5.10;;;;;;;-2.38;100.00;101065.97;4780596;30;20055;-80
2021/12/27 09:51:40;;;;;;;9.55;4.78;;;;;;;-2.38;100.00;101065.97;4771156;30;20035;-80
2021/12/27 09:54:06;;;;;;;8.60;4.95;;;;;;;-2.34;100.00;101051.63;4752174;30;20032;-80
2021/12/27 09:56:31;;;;;;;9.57;4.57;;;;;;;-2.50;100.00;101024.69;4771534;30;20039;-79
2021/12/27 09:58:57;;;;;;;7.57;4.35;;;;;;;-2.36;100.00;101041.19;4741582;30;20052;-81
2021/12/27 10:01:22;;;;;;;7.55;4.72;;;;;;;-2.18;100.00;101044.31;4769666;30;20032;-80
2021/12/27 10:03:49;;;;;;;10.93;4.70;;;;;;;-2.06;100.00;101065.44;4765922;30;20135;-78
2021/12/27 10:06:16;;;;;;;8.00;4.47;;;;;;;-2.02;100.00;101064.25;4752546;30;20358;-78
2021/12/27 10:08:52;;;;;;;10.68;4.70;;;;;;;-2.05;100.00;101043.38;4748745;30;20024;-78
2021/12/27 10:11:25;;;;;;;8.48;4.18;;;;;;;-1.98;100.00;101048.13;4750584;30;20075;-79
2021/12/27 10:14:02;;;;;;;9.95;4.80;;;;;;;-2.02;99.99;101051.06;4766366;30;20023;-78
2021/12/27 10:16:29;;;;;;;23.50;11.95;;;;;;;-2.03;100.00;101050.25;4765836;30;20032;-79
2021/12/27 10:19:01;;;;;;;10.77;6.03;;;;;;;-2.12;100.00;101035.09;4742289;30;20059;-81
2021/12/27 10:21:27;;;;;;;7.28;4.63;;;;;;;-2.03;100.00;101044.13;4756393;30;20027;-79
2021/12/27 10:24:02;;;;;;;7.80;4.18;;;;;;;-2.00;100.00;101043.91;4768455;30;20028;-80
2021/12/27 10:26:29;;;;;;;16.88;5.00;;;;;;;-2.00;99.95;101018.38;4771352;30;20050;-80
2021/12/27 10:29:12;;;;;;;11.38;4.82;;;;;;;-1.84;99.52;101033.06;4769151;29;20035;-80
2021/12/27 10:31:51;;;;;;;10.40;3.85;;;;;;;-1.99;99.57;101025.31;4768560;30;20422;-80
2021/12/27 10:34:17;;;;;;;12.20;4.10;;;;;;;-2.05;99.40;100978.34;4769718;30;20038;-81
2021/12/27 10:37:07;;;;;;;11.68;3.80;;;;;;;-1.72;98.92;101026.91;4768235;30;20440;-81
2021/12/27 10:40:02;;;;;;;8.60;4.68;;;;;;;-1.73;99.08;101041.88;4776681;30;20032;-80
2021/12/27 10:42:37;;;;;;;10.35;4.53;;;;;;;-1.84;98.83;101006.69;4769153;30;20046;-82
2021/12/27 10:45:20;;;;;;;11.88;4.63;;;;;;;-1.66;98.64;101026.41;4783632;30;20108;-80
2021/12/27 10:47:53;;;;;;;8.43;3.65;;;;;;;-1.65;98.84;101036.03;4775291;30;20047;-80
2021/12/27 10:50:27;;;;;;;9.32;3.72;;;;;;;-1.78;98.89;101028.19;4775553;30;20060;-80
2021/12/27 10:52:57;;;;;;;10.73;4.35;;;;;;;-1.67;98.73;101024.75;4781201;30;20046;-80
2021/12/27 10:55:35;;;;;;;7.10;3.55;;;;;;;-1.73;98.18;101026.03;4791371;30;20038;-80
2021/12/27 10:58:23;;;;;;;6.05;3.90;;;;;;;-1.69;98.44;101031.91;4775700;30;20032;-80
2021/12/27 11:00:58;;;;;;;10.90;4.53;;;;;;;-1.63;98.67;101026.19;4774881;30;20028;-80
2021/12/27 11:03:33;;;;;;;7.85;3.47;;;;;;;-1.59;98.25;101032.94;4776633;30;20067;-80
2021/12/27 11:06:02;;;;;;;9.07;4.25;;;;;;;-1.56;98.11;101021.28;4766886;30;20107;-79
2021/12/27 11:08:28;;;;;;;8.45;4.20;;;;;;;-1.61;98.05;101013.72;4769416;30;20040;-80
2021/12/27 11:10:54;;;;;;;10.60;4.15;;;;;;;-1.54;98.01;101022.03;4750985;30;20032;-80
2021/12/27 11:13:20;;;;;;;10.57;3.72;;;;;;;-1.55;97.90;101015.06;4771052;30;20447;-79
2021/12/27 11:15:45;;;;;;;7.10;3.20;;;;;;;-1.55;97.93;101018.56;4741720;30;20113;-78
2021/12/27 11:18:12;;;;;;;7.05;3.50;;;;;;;-1.60;97.87;101012.78;4766666;30;20473;-79
2021/12/27 11:20:42;;;;;;;8.23;3.42;;;;;;;-1.73;97.33;100988.25;4755886;30;20043;-79